sensor_id;sensor_type;location;lat;lon;timestamp;pressure;altitude;pressure_sealevel;temperature;humidity
65010;BME280;51556;50.002;22.014;2023-08-06T00:02:04;97873.45;;;22.11;90.42
65010;BME280;51556;50.002;22.014;2023-08-06T00:04:29;97869.30;;;22.11;90.18
65010;BME280;51556;50.002;22.014;2023-08-06T00:06:55;97868.44;;;22.05;90.65
65010;BME280;51556;50.002;22.014;2023-08-06T00:09:20;97871.02;;;22.00;90.66
65010;BME280;51556;50.002;22.014;2023-08-06T00:11:45;97868.23;;;21.97;90.64
65010;BME280;51556;50.002;22.014;2023-08-06T00:14:12;97866.79;;;21.95;90.51
65010;BME280;51556;50.002;22.014;2023-08-06T00:16:42;97861.67;;;21.96;90.35
65010;BME280;51556;50.002;22.014;2023-08-06T00:19:07;97859.33;;;22.03;90.13
65010;BME280;51556;50.002;22.014;2023-08-06T00:21:33;97856.07;;;22.07;89.64
65010;BME280;51556;50.002;22.014;2023-08-06T00:23:58;97853.23;;;22.09;89.31
65010;BME280;51556;50.002;22.014;2023-08-06T00:26:23;97846.98;;;22.08;89.20
65010;BME280;51556;50.002;22.014;2023-08-06T00:28:49;97842.89;;;22.12;89.06
65010;BME280;51556;50.002;22.014;2023-08-06T00:31:15;97840.96;;;22.13;88.77
65010;BME280;51556;50.002;22.014;2023-08-06T00:33:40;97841.02;;;22.14;88.76
65010;BME280;51556;50.002;22.014;2023-08-06T00:36:06;97840.33;;;22.18;88.61
65010;BME280;51556;50.002;22.014;2023-08-06T00:38:31;97837.88;;;22.21;88.56
65010;BME280;51556;50.002;22.014;2023-08-06T00:40:56;97840.33;;;22.25;88.15
65010;BME280;51556;50.002;22.014;2023-08-06T00:43:22;97837.02;;;22.26;88.02
65010;BME280;51556;50.002;22.014;2023-08-06T00:45:47;97835.87;;;22.28;87.91
65010;BME280;51556;50.002;22.014;2023-08-06T00:48:13;97830.78;;;22.32;87.76
65010;BME280;51556;50.002;22.014;2023-08-06T00:50:39;97822.64;;;22.37;87.42
65010;BME280;51556;50.002;22.014;2023-08-06T00:53:05;97821.56;;;22.37;87.11
65010;BME280;51556;50.002;22.014;2023-08-06T00:55:30;97829.88;;;22.38;86.96
65010;BME280;51556;50.002;22.014;2023-08-06T00:57:56;97833.59;;;22.37;86.72
65010;BME280;51556;50.002;22.014;2023-08-06T01:00:22;97835.84;;;22.32;86.70
65010;BME280;51556;50.002;22.014;2023-08-06T01:02:48;97830.67;;;22.28;86.64
65010;BME280;51556;50.002;22.014;2023-08-06T01:05:14;97829.37;;;22.25;86.59
65010;BME280;51556;50.002;22.014;2023-08-06T01:13:24;97822.53;;;22.29;86.44
65010;BME280;51556;50.002;22.014;2023-08-06T01:15:54;97815.64;;;22.33;86.32
65010;BME280;51556;50.002;22.014;2023-08-06T01:18:22;97812.25;;;22.37;86.11
65010;BME280;51556;50.002;22.014;2023-08-06T01:20:48;97813.48;;;22.35;85.92
65010;BME280;51556;50.002;22.014;2023-08-06T01:23:15;97806.02;;;22.37;85.68
65010;BME280;51556;50.002;22.014;2023-08-06T01:25:51;97807.42;;;22.35;85.56
65010;BME280;51556;50.002;22.014;2023-08-06T01:28:31;97794.27;;;22.32;85.34
65010;BME280;51556;50.002;22.014;2023-08-06T01:31:01;97789.25;;;22.30;85.54
65010;BME280;51556;50.002;22.014;2023-08-06T01:33:28;97787.02;;;22.29;85.47
65010;BME280;51556;50.002;22.014;2023-08-06T01:35:56;97778.95;;;22.27;85.36
65010;BME280;51556;50.002;22.014;2023-08-06T01:38:22;97779.89;;;22.29;85.43
65010;BME280;51556;50.002;22.014;2023-08-06T01:40:49;97772.59;;;22.32;85.37
65010;BME280;51556;50.002;22.014;2023-08-06T01:43:14;97779.08;;;22.35;85.25
65010;BME280;51556;50.002;22.014;2023-08-06T01:45:39;97775.48;;;22.35;85.08
65010;BME280;51556;50.002;22.014;2023-08-06T01:48:05;97776.36;;;22.35;85.02
65010;BME280;51556;50.002;22.014;2023-08-06T01:50:30;97770.86;;;22.39;85.15
65010;BME280;51556;50.002;22.014;2023-08-06T01:52:56;97770.34;;;22.40;84.86
65010;BME280;51556;50.002;22.014;2023-08-06T01:55:21;97764.83;;;22.38;84.90
65010;BME280;51556;50.002;22.014;2023-08-06T01:57:47;97763.09;;;22.39;85.04
65010;BME280;51556;50.002;22.014;2023-08-06T02:00:12;97754.80;;;22.40;85.04
65010;BME280;51556;50.002;22.014;2023-08-06T02:02:38;97753.28;;;22.42;85.06
65010;BME280;51556;50.002;22.014;2023-08-06T02:05:03;97754.16;;;22.46;84.77
65010;BME280;51556;50.002;22.014;2023-08-06T02:07:29;97752.70;;;22.50;84.86
65010;BME280;51556;50.002;22.014;2023-08-06T02:09:54;97755.77;;;22.53;84.55
65010;BME280;51556;50.002;22.014;2023-08-06T02:12:19;97750.75;;;22.57;84.36
65010;BME280;51556;50.002;22.014;2023-08-06T02:14:45;97753.57;;;22.59;84.23
65010;BME280;51556;50.002;22.014;2023-08-06T02:17:10;97754.09;;;22.57;84.05
65010;BME280;51556;50.002;22.014;2023-08-06T02:19:36;97748.63;;;22.56;84.05
65010;BME280;51556;50.002;22.014;2023-08-06T02:22:01;97751.92;;;22.59;84.15
65010;BME280;51556;50.002;22.014;2023-08-06T02:24:27;97754.33;;;22.60;84.05
65010;BME280;51556;50.002;22.014;2023-08-06T02:26:53;97749.44;;;22.62;84.10
65010;BME280;51556;50.002;22.014;2023-08-06T02:29:20;97750.87;;;22.67;83.93
65010;BME280;51556;50.002;22.014;2023-08-06T02:31:46;97746.30;;;22.71;83.76
65010;BME280;51556;50.002;22.014;2023-08-06T02:34:11;97748.91;;;22.70;83.76
65010;BME280;51556;50.002;22.014;2023-08-06T02:36:37;97745.51;;;22.70;83.58
65010;BME280;51556;50.002;22.014;2023-08-06T02:39:02;97743.54;;;22.66;83.70
65010;BME280;51556;50.002;22.014;2023-08-06T02:41:28;97738.86;;;22.61;83.88
65010;BME280;51556;50.002;22.014;2023-08-06T02:43:53;97737.73;;;22.58;83.96
65010;BME280;51556;50.002;22.014;2023-08-06T02:46:18;97737.14;;;22.56;84.13
65010;BME280;51556;50.002;22.014;2023-08-06T02:48:44;97735.76;;;22.60;84.12
65010;BME280;51556;50.002;22.014;2023-08-06T02:51:10;97735.41;;;22.61;84.21
65010;BME280;51556;50.002;22.014;2023-08-06T02:53:35;97727.07;;;22.62;84.13
65010;BME280;51556;50.002;22.014;2023-08-06T02:56:01;97717.88;;;22.61;84.04
65010;BME280;51556;50.002;22.014;2023-08-06T02:58:26;97710.94;;;22.53;84.14
65010;BME280;51556;50.002;22.014;2023-08-06T03:01:05;97706.34;;;22.47;84.45
65010;BME280;51556;50.002;22.014;2023-08-06T03:03:32;97695.72;;;22.41;84.51
65010;BME280;51556;50.002;22.014;2023-08-06T03:05:58;97694.64;;;22.31;84.81
65010;BME280;51556;50.002;22.014;2023-08-06T03:08:23;97693.26;;;22.29;85.17
65010;BME280;51556;50.002;22.014;2023-08-06T03:10:50;97690.89;;;22.24;85.20
65010;BME280;51556;50.002;22.014;2023-08-06T03:13:19;97688.85;;;22.18;85.45
65010;BME280;51556;50.002;22.014;2023-08-06T03:15:54;97692.16;;;22.14;85.50
65010;BME280;51556;50.002;22.014;2023-08-06T03:18:20;97690.41;;;22.08;85.63
65010;BME280;51556;50.002;22.014;2023-08-06T03:20:46;97685.59;;;22.04;85.78
65010;BME280;51556;50.002;22.014;2023-08-06T03:23:12;97679.69;;;22.02;85.93
65010;BME280;51556;50.002;22.014;2023-08-06T03:25:37;97677.48;;;22.00;85.97
65010;BME280;51556;50.002;22.014;2023-08-06T03:28:03;97670.98;;;21.99;85.99
65010;BME280;51556;50.002;22.014;2023-08-06T03:30:28;97666.54;;;21.99;85.96
65010;BME280;51556;50.002;22.014;2023-08-06T03:32:54;97670.13;;;21.98;86.00
65010;BME280;51556;50.002;22.014;2023-08-06T03:35:19;97666.02;;;21.98;85.94
65010;BME280;51556;50.002;22.014;2023-08-06T03:37:45;97664.10;;;21.98;85.99
65010;BME280;51556;50.002;22.014;2023-08-06T03:40:10;97659.06;;;22.00;85.95
65010;BME280;51556;50.002;22.014;2023-08-06T03:42:36;97656.52;;;22.00;86.14
65010;BME280;51556;50.002;22.014;2023-08-06T03:45:01;97652.05;;;22.00;86.31
65010;BME280;51556;50.002;22.014;2023-08-06T03:47:26;97650.71;;;22.03;86.41
65010;BME280;51556;50.002;22.014;2023-08-06T03:49:52;97649.35;;;22.04;86.25
65010;BME280;51556;50.002;22.014;2023-08-06T03:52:17;97647.73;;;21.98;86.39
65010;BME280;51556;50.002;22.014;2023-08-06T03:54:43;97649.25;;;21.98;86.84
65010;BME280;51556;50.002;22.014;2023-08-06T03:57:08;97643.19;;;21.99;87.10
65010;BME280;51556;50.002;22.014;2023-08-06T03:59:34;97638.92;;;21.97;86.98
65010;BME280;51556;50.002;22.014;2023-08-06T04:01:59;97636.13;;;21.96;87.20
65010;BME280;51556;50.002;22.014;2023-08-06T04:04:25;97627.05;;;21.97;87.37
65010;BME280;51556;50.002;22.014;2023-08-06T04:06:50;97625.91;;;22.00;87.28
65010;BME280;51556;50.002;22.014;2023-08-06T04:09:16;97624.18;;;22.04;87.35
65010;BME280;51556;50.002;22.014;2023-08-06T04:11:41;97620.47;;;22.09;87.47
65010;BME280;51556;50.002;22.014;2023-08-06T04:14:07;97621.96;;;22.13;87.24
65010;BME280;51556;50.002;22.014;2023-08-06T04:16:32;97618.71;;;22.14;87.08
65010;BME280;51556;50.002;22.014;2023-08-06T04:18:58;97607.62;;;22.13;87.13
65010;BME280;51556;50.002;22.014;2023-08-06T04:21:24;97614.47;;;22.13;87.35
65010;BME280;51556;50.002;22.014;2023-08-06T04:23:49;97605.83;;;22.19;87.54
65010;BME280;51556;50.002;22.014;2023-08-06T04:26:15;97601.08;;;22.21;87.28
65010;BME280;51556;50.002;22.014;2023-08-06T04:28:40;97597.72;;;22.24;87.49
65010;BME280;51556;50.002;22.014;2023-08-06T04:31:06;97591.98;;;22.33;87.52
65010;BME280;51556;50.002;22.014;2023-08-06T04:33:31;97590.64;;;22.41;87.24
65010;BME280;51556;50.002;22.014;2023-08-06T04:35:57;97585.58;;;22.47;87.03
65010;BME280;51556;50.002;22.014;2023-08-06T04:38:25;97585.02;;;22.52;87.03
65010;BME280;51556;50.002;22.014;2023-08-06T04:40:51;97581.54;;;22.53;87.01
65010;BME280;51556;50.002;22.014;2023-08-06T04:43:17;97583.35;;;22.57;87.00
65010;BME280;51556;50.002;22.014;2023-08-06T04:45:46;97580.09;;;22.61;86.70
65010;BME280;51556;50.002;22.014;2023-08-06T04:48:12;97580.98;;;22.63;86.75
65010;BME280;51556;50.002;22.014;2023-08-06T04:50:38;97577.44;;;22.66;86.76
65010;BME280;51556;50.002;22.014;2023-08-06T04:53:03;97573.27;;;22.72;86.66
65010;BME280;51556;50.002;22.014;2023-08-06T04:55:29;97571.38;;;22.75;86.25
65010;BME280;51556;50.002;22.014;2023-08-06T04:57:54;97570.14;;;22.78;86.02
65010;BME280;51556;50.002;22.014;2023-08-06T05:00:19;97567.96;;;22.82;85.84
65010;BME280;51556;50.002;22.014;2023-08-06T05:02:45;97560.57;;;22.87;85.82
65010;BME280;51556;50.002;22.014;2023-08-06T05:05:10;97557.18;;;22.94;85.50
65010;BME280;51556;50.002;22.014;2023-08-06T05:07:36;97551.11;;;22.99;85.46
65010;BME280;51556;50.002;22.014;2023-08-06T05:10:01;97549.58;;;23.05;85.31
65010;BME280;51556;50.002;22.014;2023-08-06T05:12:28;97545.23;;;23.12;84.78
65010;BME280;51556;50.002;22.014;2023-08-06T05:14:53;97548.82;;;23.15;84.61
65010;BME280;51556;50.002;22.014;2023-08-06T05:17:19;97548.86;;;23.23;84.30
65010;BME280;51556;50.002;22.014;2023-08-06T05:19:44;97544.02;;;23.30;84.12
65010;BME280;51556;50.002;22.014;2023-08-06T05:22:10;97538.01;;;23.36;83.63
65010;BME280;51556;50.002;22.014;2023-08-06T05:24:35;97530.73;;;23.35;83.81
65010;BME280;51556;50.002;22.014;2023-08-06T05:27:00;97530.09;;;23.43;83.65
65010;BME280;51556;50.002;22.014;2023-08-06T05:29:26;97528.05;;;23.48;83.43
65010;BME280;51556;50.002;22.014;2023-08-06T05:31:52;97532.85;;;23.54;83.04
65010;BME280;51556;50.002;22.014;2023-08-06T05:34:17;97535.70;;;23.61;82.81
65010;BME280;51556;50.002;22.014;2023-08-06T05:36:43;97530.23;;;23.65;82.36
65010;BME280;51556;50.002;22.014;2023-08-06T05:39:08;97532.80;;;23.70;82.13
65010;BME280;51556;50.002;22.014;2023-08-06T05:41:34;97531.73;;;23.76;82.12
65010;BME280;51556;50.002;22.014;2023-08-06T05:43:59;97533.11;;;23.86;81.31
65010;BME280;51556;50.002;22.014;2023-08-06T05:46:25;97530.49;;;23.90;80.49
65010;BME280;51556;50.002;22.014;2023-08-06T05:48:50;97526.98;;;23.88;79.87
65010;BME280;51556;50.002;22.014;2023-08-06T05:51:16;97525.74;;;23.90;80.14
65010;BME280;51556;50.002;22.014;2023-08-06T05:53:42;97519.71;;;23.92;80.10
65010;BME280;51556;50.002;22.014;2023-08-06T05:56:07;97517.39;;;23.97;79.66
65010;BME280;51556;50.002;22.014;2023-08-06T05:58:32;97515.45;;;24.00;79.72
65010;BME280;51556;50.002;22.014;2023-08-06T06:00:58;97509.32;;;24.05;79.30
65010;BME280;51556;50.002;22.014;2023-08-06T06:03:24;97504.94;;;24.11;79.03
65010;BME280;51556;50.002;22.014;2023-08-06T06:05:49;97499.35;;;24.15;79.03
65010;BME280;51556;50.002;22.014;2023-08-06T06:08:14;97495.63;;;24.25;78.90
65010;BME280;51556;50.002;22.014;2023-08-06T06:10:40;97493.04;;;24.35;78.50
65010;BME280;51556;50.002;22.014;2023-08-06T06:13:06;97493.17;;;24.42;77.96
65010;BME280;51556;50.002;22.014;2023-08-06T06:15:31;97488.01;;;24.48;77.19
65010;BME280;51556;50.002;22.014;2023-08-06T06:17:57;97485.55;;;24.49;76.67
65010;BME280;51556;50.002;22.014;2023-08-06T06:20:23;97483.11;;;24.54;76.73
65010;BME280;51556;50.002;22.014;2023-08-06T06:22:48;97483.16;;;24.62;76.08
65010;BME280;51556;50.002;22.014;2023-08-06T06:25:14;97481.91;;;24.65;76.05
65010;BME280;51556;50.002;22.014;2023-08-06T06:27:39;97477.23;;;24.75;76.39
65010;BME280;51556;50.002;22.014;2023-08-06T06:30:05;97479.90;;;24.86;75.70
65010;BME280;51556;50.002;22.014;2023-08-06T06:32:31;97475.36;;;24.94;75.09
65010;BME280;51556;50.002;22.014;2023-08-06T06:34:56;97481.02;;;25.00;74.81
65010;BME280;51556;50.002;22.014;2023-08-06T06:37:22;97485.89;;;25.03;73.45
65010;BME280;51556;50.002;22.014;2023-08-06T06:39:47;97485.21;;;25.06;73.44
65010;BME280;51556;50.002;22.014;2023-08-06T06:42:13;97484.50;;;25.12;72.91
65010;BME280;51556;50.002;22.014;2023-08-06T06:44:40;97488.92;;;25.14;71.72
65010;BME280;51556;50.002;22.014;2023-08-06T06:47:05;97497.36;;;25.16;70.95
65010;BME280;51556;50.002;22.014;2023-08-06T06:49:31;97495.66;;;25.20;71.04
65010;BME280;51556;50.002;22.014;2023-08-06T06:51:57;97494.10;;;25.21;70.16
65010;BME280;51556;50.002;22.014;2023-08-06T06:54:22;97493.34;;;25.23;70.07
65010;BME280;51556;50.002;22.014;2023-08-06T06:56:48;97490.20;;;25.26;69.87
65010;BME280;51556;50.002;22.014;2023-08-06T06:59:13;97488.98;;;25.32;70.61
65010;BME280;51556;50.002;22.014;2023-08-06T07:01:39;97486.03;;;25.43;70.72
65010;BME280;51556;50.002;22.014;2023-08-06T07:04:04;97484.20;;;25.52;69.32
65010;BME280;51556;50.002;22.014;2023-08-06T07:06:33;97484.15;;;25.54;68.61
65010;BME280;51556;50.002;22.014;2023-08-06T07:08:58;97479.40;;;25.51;68.58
65010;BME280;51556;50.002;22.014;2023-08-06T07:11:24;97476.05;;;25.51;68.83
65010;BME280;51556;50.002;22.014;2023-08-06T07:13:55;97472.16;;;25.55;68.49
65010;BME280;51556;50.002;22.014;2023-08-06T07:16:21;97469.88;;;25.56;68.97
65010;BME280;51556;50.002;22.014;2023-08-06T07:18:46;97470.55;;;25.61;68.77
65010;BME280;51556;50.002;22.014;2023-08-06T07:21:12;97468.92;;;25.64;68.49
65010;BME280;51556;50.002;22.014;2023-08-06T07:23:37;97466.02;;;25.64;67.83
65010;BME280;51556;50.002;22.014;2023-08-06T07:26:03;97466.91;;;25.67;68.03
65010;BME280;51556;50.002;22.014;2023-08-06T07:28:28;97466.54;;;25.72;67.66
65010;BME280;51556;50.002;22.014;2023-08-06T07:30:54;97466.29;;;25.74;67.96
65010;BME280;51556;50.002;22.014;2023-08-06T07:33:19;97464.11;;;25.82;67.53
65010;BME280;51556;50.002;22.014;2023-08-06T07:35:45;97467.16;;;25.89;67.01
65010;BME280;51556;50.002;22.014;2023-08-06T07:38:10;97461.80;;;25.97;67.55
65010;BME280;51556;50.002;22.014;2023-08-06T07:40:36;97465.07;;;26.07;67.62
65010;BME280;51556;50.002;22.014;2023-08-06T07:43:03;97464.52;;;26.16;66.91
65010;BME280;51556;50.002;22.014;2023-08-06T07:45:32;97464.36;;;26.24;66.46
65010;BME280;51556;50.002;22.014;2023-08-06T07:47:58;97462.76;;;26.29;65.44
65010;BME280;51556;50.002;22.014;2023-08-06T07:50:23;97462.15;;;26.30;63.96
65010;BME280;51556;50.002;22.014;2023-08-06T07:52:49;97463.20;;;26.29;62.98
65010;BME280;51556;50.002;22.014;2023-08-06T07:55:14;97464.56;;;26.23;62.34
65010;BME280;51556;50.002;22.014;2023-08-06T07:57:41;97462.91;;;26.19;62.38
65010;BME280;51556;50.002;22.014;2023-08-06T08:00:06;97459.55;;;26.15;62.08
65010;BME280;51556;50.002;22.014;2023-08-06T08:02:32;97455.98;;;26.15;62.77
65010;BME280;51556;50.002;22.014;2023-08-06T08:04:58;97455.50;;;26.19;63.48
65010;BME280;51556;50.002;22.014;2023-08-06T08:07:23;97454.82;;;26.30;63.44
65010;BME280;51556;50.002;22.014;2023-08-06T08:09:49;97448.08;;;26.38;62.78
65010;BME280;51556;50.002;22.014;2023-08-06T08:12:14;97451.14;;;26.42;62.87
65010;BME280;51556;50.002;22.014;2023-08-06T08:14:40;97452.02;;;26.45;61.67
65010;BME280;51556;50.002;22.014;2023-08-06T08:17:06;97456.11;;;26.49;61.59
65010;BME280;51556;50.002;22.014;2023-08-06T08:19:32;97457.35;;;26.53;61.86
65010;BME280;51556;50.002;22.014;2023-08-06T08:21:57;97447.75;;;26.59;61.86
65010;BME280;51556;50.002;22.014;2023-08-06T08:24:23;97453.99;;;26.68;61.25
65010;BME280;51556;50.002;22.014;2023-08-06T08:26:50;97458.80;;;26.73;61.22
65010;BME280;51556;50.002;22.014;2023-08-06T08:29:16;97454.31;;;26.77;60.64
65010;BME280;51556;50.002;22.014;2023-08-06T08:31:41;97454.29;;;26.81;60.39
65010;BME280;51556;50.002;22.014;2023-08-06T08:34:08;97456.47;;;26.89;60.56
65010;BME280;51556;50.002;22.014;2023-08-06T08:36:34;97463.36;;;26.99;59.99
65010;BME280;51556;50.002;22.014;2023-08-06T08:38:59;97466.27;;;27.05;58.93
65010;BME280;51556;50.002;22.014;2023-08-06T08:41:28;97466.95;;;27.08;58.92
65010;BME280;51556;50.002;22.014;2023-08-06T08:43:56;97455.86;;;27.17;59.03
65010;BME280;51556;50.002;22.014;2023-08-06T08:46:23;97447.36;;;27.27;58.30
65010;BME280;51556;50.002;22.014;2023-08-06T08:48:50;97445.09;;;27.36;57.80
65010;BME280;51556;50.002;22.014;2023-08-06T08:51:15;97447.08;;;27.41;57.34
65010;BME280;51556;50.002;22.014;2023-08-06T08:53:44;97457.39;;;27.47;57.64
65010;BME280;51556;50.002;22.014;2023-08-06T08:56:11;97458.90;;;27.56;57.71
65010;BME280;51556;50.002;22.014;2023-08-06T08:58:38;97465.08;;;27.60;57.15
65010;BME280;51556;50.002;22.014;2023-08-06T09:01:04;97467.48;;;27.60;57.28
65010;BME280;51556;50.002;22.014;2023-08-06T09:03:30;97472.73;;;27.54;56.92
65010;BME280;51556;50.002;22.014;2023-08-06T09:05:57;97472.21;;;27.50;56.96
65010;BME280;51556;50.002;22.014;2023-08-06T09:08:27;97466.40;;;27.43;56.62
65010;BME280;51556;50.002;22.014;2023-08-06T09:10:54;97460.48;;;27.43;56.97
65010;BME280;51556;50.002;22.014;2023-08-06T09:13:21;97456.02;;;27.42;57.03
65010;BME280;51556;50.002;22.014;2023-08-06T09:15:47;97465.31;;;27.47;56.41
65010;BME280;51556;50.002;22.014;2023-08-06T09:18:15;97465.94;;;27.46;56.09
65010;BME280;51556;50.002;22.014;2023-08-06T09:20:40;97460.81;;;27.47;56.76
65010;BME280;51556;50.002;22.014;2023-08-06T09:23:09;97471.25;;;27.44;56.36
65010;BME280;51556;50.002;22.014;2023-08-06T09:25:38;97477.30;;;27.28;56.72
65010;BME280;51556;50.002;22.014;2023-08-06T09:28:05;97480.02;;;27.11;57.03
65010;BME280;51556;50.002;22.014;2023-08-06T09:30:33;97479.84;;;26.92;57.51
65010;BME280;51556;50.002;22.014;2023-08-06T09:33:03;97486.57;;;26.74;57.55
65010;BME280;51556;50.002;22.014;2023-08-06T09:35:29;97483.70;;;26.61;57.10
65010;BME280;51556;50.002;22.014;2023-08-06T09:37:56;97486.60;;;26.52;57.54
65010;BME280;51556;50.002;22.014;2023-08-06T09:40:32;97485.48;;;26.42;57.74
65010;BME280;51556;50.002;22.014;2023-08-06T09:42:58;97482.78;;;26.37;58.49
65010;BME280;51556;50.002;22.014;2023-08-06T09:45:34;97485.08;;;26.40;58.40
65010;BME280;51556;50.002;22.014;2023-08-06T09:48:03;97482.84;;;26.45;58.54
65010;BME280;51556;50.002;22.014;2023-08-06T09:50:33;97482.10;;;26.51;58.51
65010;BME280;51556;50.002;22.014;2023-08-06T09:53:02;97491.33;;;26.48;57.60
65010;BME280;51556;50.002;22.014;2023-08-06T09:55:28;97501.52;;;26.40;57.56
65010;BME280;51556;50.002;22.014;2023-08-06T09:57:54;97500.21;;;26.29;57.51
65010;BME280;51556;50.002;22.014;2023-08-06T10:00:20;97492.44;;;26.25;58.24
65010;BME280;51556;50.002;22.014;2023-08-06T10:02:46;97497.95;;;26.37;58.53
65010;BME280;51556;50.002;22.014;2023-08-06T10:05:12;97509.52;;;26.37;58.40
65010;BME280;51556;50.002;22.014;2023-08-06T10:07:39;97510.09;;;26.40;58.38
65010;BME280;51556;50.002;22.014;2023-08-06T10:10:06;97501.67;;;26.42;58.46
65010;BME280;51556;50.002;22.014;2023-08-06T10:12:34;97497.68;;;26.42;58.14
65010;BME280;51556;50.002;22.014;2023-08-06T10:15:04;97498.55;;;26.44;57.00
65010;BME280;51556;50.002;22.014;2023-08-06T10:17:31;97499.31;;;26.35;55.91
65010;BME280;51556;50.002;22.014;2023-08-06T10:20:02;97497.45;;;26.26;56.51
65010;BME280;51556;50.002;22.014;2023-08-06T10:22:32;97494.08;;;26.21;56.35
65010;BME280;51556;50.002;22.014;2023-08-06T10:24:59;97485.71;;;26.14;56.20
65010;BME280;51556;50.002;22.014;2023-08-06T10:33:00;97476.02;;;25.89;56.58
65010;BME280;51556;50.002;22.014;2023-08-06T10:35:45;97465.17;;;25.85;56.96
65010;BME280;51556;50.002;22.014;2023-08-06T10:38:22;97454.64;;;25.87;57.41
65010;BME280;51556;50.002;22.014;2023-08-06T10:41:02;97455.34;;;25.89;57.43
65010;BME280;51556;50.002;22.014;2023-08-06T10:45:58;97445.39;;;25.86;56.98
65010;BME280;51556;50.002;22.014;2023-08-06T10:48:45;97447.34;;;25.92;57.30
65010;BME280;51556;50.002;22.014;2023-08-06T10:51:18;97449.39;;;26.07;57.15
65010;BME280;51556;50.002;22.014;2023-08-06T10:53:47;97441.40;;;26.24;57.54
65010;BME280;51556;50.002;22.014;2023-08-06T10:56:49;97439.36;;;26.42;56.24
65010;BME280;51556;50.002;22.014;2023-08-06T10:59:15;97437.59;;;26.57;56.38
65010;BME280;51556;50.002;22.014;2023-08-06T11:02:01;97442.48;;;26.72;55.12
65010;BME280;51556;50.002;22.014;2023-08-06T11:04:38;97445.89;;;26.79;54.56
65010;BME280;51556;50.002;22.014;2023-08-06T11:07:07;97443.70;;;26.84;53.83
65010;BME280;51556;50.002;22.014;2023-08-06T11:09:35;97450.39;;;26.85;53.03
65010;BME280;51556;50.002;22.014;2023-08-06T11:12:01;97444.84;;;26.91;53.55
65010;BME280;51556;50.002;22.014;2023-08-06T11:14:26;97448.70;;;27.03;53.77
65010;BME280;51556;50.002;22.014;2023-08-06T11:16:52;97452.75;;;27.21;53.76
65010;BME280;51556;50.002;22.014;2023-08-06T11:19:22;97453.27;;;27.39;52.93
65010;BME280;51556;50.002;22.014;2023-08-06T11:21:56;97456.75;;;27.50;51.87
65010;BME280;51556;50.002;22.014;2023-08-06T11:24:24;97453.91;;;27.59;51.40
65010;BME280;51556;50.002;22.014;2023-08-06T11:27:22;97454.88;;;27.62;50.95
65010;BME280;51556;50.002;22.014;2023-08-06T11:29:49;97449.50;;;27.75;51.51
65010;BME280;51556;50.002;22.014;2023-08-06T11:35:08;97451.81;;;28.08;51.06
65010;BME280;51556;50.002;22.014;2023-08-06T11:37:34;97450.80;;;28.16;49.81
65010;BME280;51556;50.002;22.014;2023-08-06T11:40:05;97444.59;;;28.27;50.87
65010;BME280;51556;50.002;22.014;2023-08-06T11:42:33;97441.73;;;28.45;50.77
65010;BME280;51556;50.002;22.014;2023-08-06T11:44:58;97435.86;;;28.68;49.75
65010;BME280;51556;50.002;22.014;2023-08-06T11:47:24;97443.95;;;28.88;49.81
65010;BME280;51556;50.002;22.014;2023-08-06T11:49:50;97442.69;;;29.08;48.30
65010;BME280;51556;50.002;22.014;2023-08-06T11:52:19;97447.02;;;29.13;46.16
65010;BME280;51556;50.002;22.014;2023-08-06T11:57:25;97438.92;;;29.15;46.22
65010;BME280;51556;50.002;22.014;2023-08-06T11:59:50;97438.52;;;29.26;45.54
65010;BME280;51556;50.002;22.014;2023-08-06T12:02:16;97436.02;;;29.33;45.56
65010;BME280;51556;50.002;22.014;2023-08-06T12:05:13;97433.14;;;29.38;44.32
65010;BME280;51556;50.002;22.014;2023-08-06T12:07:42;97421.81;;;29.39;44.02
65010;BME280;51556;50.002;22.014;2023-08-06T12:12:48;97421.84;;;29.52;43.76
65010;BME280;51556;50.002;22.014;2023-08-06T12:15:25;97414.11;;;29.60;44.42
65010;BME280;51556;50.002;22.014;2023-08-06T12:17:54;97415.05;;;29.78;44.55
65010;BME280;51556;50.002;22.014;2023-08-06T12:20:22;97413.62;;;29.94;44.53
65010;BME280;51556;50.002;22.014;2023-08-06T12:22:48;97411.55;;;30.08;44.21
65010;BME280;51556;50.002;22.014;2023-08-06T12:25:14;97408.57;;;30.23;44.04
65010;BME280;51556;50.002;22.014;2023-08-06T12:27:41;97412.71;;;30.40;43.54
65010;BME280;51556;50.002;22.014;2023-08-06T12:30:08;97429.42;;;30.35;42.72
65010;BME280;51556;50.002;22.014;2023-08-06T12:32:34;97435.87;;;30.20;43.24
65010;BME280;51556;50.002;22.014;2023-08-06T12:35:22;97438.25;;;30.14;43.49
65010;BME280;51556;50.002;22.014;2023-08-06T12:37:59;97443.30;;;29.97;43.39
65010;BME280;51556;50.002;22.014;2023-08-06T12:43:01;97439.67;;;29.86;44.11
65010;BME280;51556;50.002;22.014;2023-08-06T12:45:29;97450.98;;;29.82;44.26
65010;BME280;51556;50.002;22.014;2023-08-06T12:47:55;97449.91;;;29.72;44.10
65010;BME280;51556;50.002;22.014;2023-08-06T12:50:23;97448.02;;;29.66;43.51
65010;BME280;51556;50.002;22.014;2023-08-06T12:52:52;97446.16;;;29.57;44.16
65010;BME280;51556;50.002;22.014;2023-08-06T12:55:18;97450.38;;;29.53;44.26
65010;BME280;51556;50.002;22.014;2023-08-06T13:00:32;97453.38;;;29.35;44.15
65010;BME280;51556;50.002;22.014;2023-08-06T13:02:59;97463.80;;;29.38;44.04
65010;BME280;51556;50.002;22.014;2023-08-06T13:05:24;97464.05;;;29.50;43.42
65010;BME280;51556;50.002;22.014;2023-08-06T13:08:02;97468.12;;;29.65;43.33
65010;BME280;51556;50.002;22.014;2023-08-06T13:10:28;97475.22;;;29.64;42.12
65010;BME280;51556;50.002;22.014;2023-08-06T13:13:04;97472.61;;;29.49;42.14
65010;BME280;51556;50.002;22.014;2023-08-06T13:18:56;97461.02;;;29.49;43.24
65010;BME280;51556;50.002;22.014;2023-08-06T13:21:22;97454.85;;;29.76;43.00